sensor_id;sensor_type;location;lat;lon;timestamp;temperature;humidity
9699;DHT22;10089;47.876;8.346;2022-10-31T00:01:28;9.80;99.90
9699;DHT22;10089;47.876;8.346;2022-10-31T00:03:54;9.80;1.00
9699;DHT22;10089;47.876;8.346;2022-10-31T00:06:20;9.70;99.90
9699;DHT22;10089;47.876;8.346;2022-10-31T00:08:46;9.80;99.90
9699;DHT22;10089;47.876;8.346;2022-10-31T00:11:12;9.80;1.00
9699;DHT22;10089;47.876;8.346;2022-10-31T00:13:37;9.70;1.00
9699;DHT22;10089;47.876;8.346;2022-10-31T00:16:03;9.70;99.90
9699;DHT22;10089;47.876;8.346;2022-10-31T00:18:29;9.60;1.00
9699;DHT22;10089;47.876;8.346;2022-10-31T00:20:58;9.60;1.00
9699;DHT22;10089;47.876;8.346;2022-10-31T00:23:23;9.50;1.00
9699;DHT22;10089;47.876;8.346;2022-10-31T00:25:49;9.60;1.00
9699;DHT22;10089;47.876;8.346;2022-10-31T00:28:14;9.60;1.00
9699;DHT22;10089;47.876;8.346;2022-10-31T00:30:40;9.50;1.00
9699;DHT22;10089;47.876;8.346;2022-10-31T00:33:05;9.50;1.00
9699;DHT22;10089;47.876;8.346;2022-10-31T00:35:31;9.50;1.00
9699;DHT22;10089;47.876;8.346;2022-10-31T00:37:57;9.50;1.00
9699;DHT22;10089;47.876;8.346;2022-10-31T00:40:23;9.50;1.00
9699;DHT22;10089;47.876;8.346;2022-10-31T00:42:48;9.50;1.00
9699;DHT22;10089;47.876;8.346;2022-10-31T00:45:14;9.40;1.00
9699;DHT22;10089;47.876;8.346;2022-10-31T00:47:39;9.40;1.00
9699;DHT22;10089;47.876;8.346;2022-10-31T00:50:05;9.30;1.00
9699;DHT22;10089;47.876;8.346;2022-10-31T00:52:31;9.30;1.00
9699;DHT22;10089;47.876;8.346;2022-10-31T00:54:56;9.30;1.00
9699;DHT22;10089;47.876;8.346;2022-10-31T00:57:22;9.30;1.00
9699;DHT22;10089;47.876;8.346;2022-10-31T00:59:47;9.30;1.00
9699;DHT22;10089;47.876;8.346;2022-10-31T01:02:13;9.30;1.00
9699;DHT22;10089;47.876;8.346;2022-10-31T01:04:38;9.40;1.00
9699;DHT22;10089;47.876;8.346;2022-10-31T01:07:04;9.40;1.00
9699;DHT22;10089;47.876;8.346;2022-10-31T01:09:29;9.30;1.00
9699;DHT22;10089;47.876;8.346;2022-10-31T01:11:55;9.30;1.00
9699;DHT22;10089;47.876;8.346;2022-10-31T01:14:20;9.30;1.00
9699;DHT22;10089;47.876;8.346;2022-10-31T01:16:46;9.30;1.00
9699;DHT22;10089;47.876;8.346;2022-10-31T01:19:11;9.20;1.00
9699;DHT22;10089;47.876;8.346;2022-10-31T01:21:37;9.30;1.00
9699;DHT22;10089;47.876;8.346;2022-10-31T01:24:03;9.20;1.00
9699;DHT22;10089;47.876;8.346;2022-10-31T01:26:29;9.20;1.00
9699;DHT22;10089;47.876;8.346;2022-10-31T01:28:59;9.20;1.00
9699;DHT22;10089;47.876;8.346;2022-10-31T01:31:32;9.20;1.00
9699;DHT22;10089;47.876;8.346;2022-10-31T01:33:58;9.10;1.00
9699;DHT22;10089;47.876;8.346;2022-10-31T01:38:49;9.20;1.00
9699;DHT22;10089;47.876;8.346;2022-10-31T01:41:16;9.20;1.00
9699;DHT22;10089;47.876;8.346;2022-10-31T01:44:44;9.10;1.00
9699;DHT22;10089;47.876;8.346;2022-10-31T01:46:33;9.10;1.00
9699;DHT22;10089;47.876;8.346;2022-10-31T01:49:00;9.00;1.00
9699;DHT22;10089;47.876;8.346;2022-10-31T01:51:28;9.10;1.00
9699;DHT22;10089;47.876;8.346;2022-10-31T01:53:57;9.10;1.00
9699;DHT22;10089;47.876;8.346;2022-10-31T01:56:23;9.10;1.00
9699;DHT22;10089;47.876;8.346;2022-10-31T01:58:49;9.00;1.00
9699;DHT22;10089;47.876;8.346;2022-10-31T02:01:15;9.10;1.00
9699;DHT22;10089;47.876;8.346;2022-10-31T02:03:41;9.10;5.30
9699;DHT22;10089;47.876;8.346;2022-10-31T02:06:08;9.10;1.00
9699;DHT22;10089;47.876;8.346;2022-10-31T02:08:36;9.10;1.00
9699;DHT22;10089;47.876;8.346;2022-10-31T02:11:02;9.10;1.00
9699;DHT22;10089;47.876;8.346;2022-10-31T02:13:28;9.00;1.00
9699;DHT22;10089;47.876;8.346;2022-10-31T02:15:55;8.90;1.00
9699;DHT22;10089;47.876;8.346;2022-10-31T02:18:21;8.90;7.40
9699;DHT22;10089;47.876;8.346;2022-10-31T02:20:51;8.90;6.60
9699;DHT22;10089;47.876;8.346;2022-10-31T02:23:24;8.90;1.00
9699;DHT22;10089;47.876;8.346;2022-10-31T02:26:20;8.90;1.00
9699;DHT22;10089;47.876;8.346;2022-10-31T02:31:35;9.00;1.00
9699;DHT22;10089;47.876;8.346;2022-10-31T02:42:18;9.10;1.00
9699;DHT22;10089;47.876;8.346;2022-10-31T02:49:31;8.90;1.00
9699;DHT22;10089;47.876;8.346;2022-10-31T02:51:58;8.90;1.00
9699;DHT22;10089;47.876;8.346;2022-10-31T02:54:24;8.90;1.00
9699;DHT22;10089;47.876;8.346;2022-10-31T02:56:51;8.90;1.00
9699;DHT22;10089;47.876;8.346;2022-10-31T02:59:18;8.90;1.00
9699;DHT22;10089;47.876;8.346;2022-10-31T03:07:10;8.90;1.00
9699;DHT22;10089;47.876;8.346;2022-10-31T03:09:34;8.90;25.50
9699;DHT22;10089;47.876;8.346;2022-10-31T03:12:05;8.90;1.00
9699;DHT22;10089;47.876;8.346;2022-10-31T03:14:56;8.90;1.00
9699;DHT22;10089;47.876;8.346;2022-10-31T03:17:22;8.90;1.00
9699;DHT22;10089;47.876;8.346;2022-10-31T03:19:49;8.90;1.00
9699;DHT22;10089;47.876;8.346;2022-10-31T03:22:22;8.90;1.00
9699;DHT22;10089;47.876;8.346;2022-10-31T03:24:48;8.90;24.40
9699;DHT22;10089;47.876;8.346;2022-10-31T03:27:16;9.00;1.00
9699;DHT22;10089;47.876;8.346;2022-10-31T03:29:43;9.00;1.00
9699;DHT22;10089;47.876;8.346;2022-10-31T03:32:11;9.00;1.00
9699;DHT22;10089;47.876;8.346;2022-10-31T03:34:38;8.90;1.00
9699;DHT22;10089;47.876;8.346;2022-10-31T03:37:06;8.90;1.00
9699;DHT22;10089;47.876;8.346;2022-10-31T03:39:32;8.90;4.30
9699;DHT22;10089;47.876;8.346;2022-10-31T03:42:05;8.90;16.90
9699;DHT22;10089;47.876;8.346;2022-10-31T03:44:32;8.90;11.70
9699;DHT22;10089;47.876;8.346;2022-10-31T03:46:58;8.90;6.50
9699;DHT22;10089;47.876;8.346;2022-10-31T03:49:24;8.90;44.00
9699;DHT22;10089;47.876;8.346;2022-10-31T03:52:00;8.90;42.70
9699;DHT22;10089;47.876;8.346;2022-10-31T03:54:46;8.80;99.90
9699;DHT22;10089;47.876;8.346;2022-10-31T03:59:53;8.70;99.90
9699;DHT22;10089;47.876;8.346;2022-10-31T04:02:20;8.70;99.90
9699;DHT22;10089;47.876;8.346;2022-10-31T04:04:47;8.60;99.90
9699;DHT22;10089;47.876;8.346;2022-10-31T04:07:13;8.60;99.90
9699;DHT22;10089;47.876;8.346;2022-10-31T04:09:41;8.60;99.90
9699;DHT22;10089;47.876;8.346;2022-10-31T04:12:08;8.50;99.90
9699;DHT22;10089;47.876;8.346;2022-10-31T04:14:34;8.60;99.90
9699;DHT22;10089;47.876;8.346;2022-10-31T04:17:02;8.60;99.90
9699;DHT22;10089;47.876;8.346;2022-10-31T04:19:28;8.60;99.90
9699;DHT22;10089;47.876;8.346;2022-10-31T04:21:54;8.50;99.90
9699;DHT22;10089;47.876;8.346;2022-10-31T04:24:19;8.60;99.90
9699;DHT22;10089;47.876;8.346;2022-10-31T04:26:45;8.60;99.90
9699;DHT22;10089;47.876;8.346;2022-10-31T04:29:10;8.60;99.90
9699;DHT22;10089;47.876;8.346;2022-10-31T04:31:36;8.60;99.90
9699;DHT22;10089;47.876;8.346;2022-10-31T04:34:01;8.60;99.90
9699;DHT22;10089;47.876;8.346;2022-10-31T04:36:27;8.60;99.90
9699;DHT22;10089;47.876;8.346;2022-10-31T04:38:52;8.60;99.90
9699;DHT22;10089;47.876;8.346;2022-10-31T04:41:18;8.60;99.90
9699;DHT22;10089;47.876;8.346;2022-10-31T04:43:44;8.70;99.90
9699;DHT22;10089;47.876;8.346;2022-10-31T04:46:09;8.70;71.50
9699;DHT22;10089;47.876;8.346;2022-10-31T04:48:35;8.70;69.70
9699;DHT22;10089;47.876;8.346;2022-10-31T04:51:00;8.70;99.90
9699;DHT22;10089;47.876;8.346;2022-10-31T04:53:26;8.70;99.90
9699;DHT22;10089;47.876;8.346;2022-10-31T04:55:52;8.70;99.90
9699;DHT22;10089;47.876;8.346;2022-10-31T04:58:17;8.80;99.90
9699;DHT22;10089;47.876;8.346;2022-10-31T05:00:43;8.70;93.40
9699;DHT22;10089;47.876;8.346;2022-10-31T05:03:08;8.70;70.50
9699;DHT22;10089;47.876;8.346;2022-10-31T05:05:34;8.70;92.70
9699;DHT22;10089;47.876;8.346;2022-10-31T05:08:00;8.70;99.90
9699;DHT22;10089;47.876;8.346;2022-10-31T05:10:26;8.70;99.90
9699;DHT22;10089;47.876;8.346;2022-10-31T05:12:53;8.70;99.90
9699;DHT22;10089;47.876;8.346;2022-10-31T05:15:20;8.70;99.90
9699;DHT22;10089;47.876;8.346;2022-10-31T05:17:46;8.70;99.90
9699;DHT22;10089;47.876;8.346;2022-10-31T05:20:12;8.80;99.90
9699;DHT22;10089;47.876;8.346;2022-10-31T05:22:41;8.70;99.90
9699;DHT22;10089;47.876;8.346;2022-10-31T05:25:07;8.70;99.90
9699;DHT22;10089;47.876;8.346;2022-10-31T05:27:33;8.70;99.90
9699;DHT22;10089;47.876;8.346;2022-10-31T05:29:58;8.70;99.90
9699;DHT22;10089;47.876;8.346;2022-10-31T05:32:24;8.70;99.90
9699;DHT22;10089;47.876;8.346;2022-10-31T05:34:49;8.70;99.90
9699;DHT22;10089;47.876;8.346;2022-10-31T05:37:15;8.70;99.90
9699;DHT22;10089;47.876;8.346;2022-10-31T05:39:40;8.60;99.90
9699;DHT22;10089;47.876;8.346;2022-10-31T05:42:06;8.60;99.90
9699;DHT22;10089;47.876;8.346;2022-10-31T05:44:31;8.60;99.90
9699;DHT22;10089;47.876;8.346;2022-10-31T05:46:57;8.50;99.90
9699;DHT22;10089;47.876;8.346;2022-10-31T05:49:23;8.50;99.90
9699;DHT22;10089;47.876;8.346;2022-10-31T05:51:48;8.50;99.90
9699;DHT22;10089;47.876;8.346;2022-10-31T05:54:14;8.40;99.90
9699;DHT22;10089;47.876;8.346;2022-10-31T05:56:39;8.30;99.90
9699;DHT22;10089;47.876;8.346;2022-10-31T05:59:05;8.30;99.90
9699;DHT22;10089;47.876;8.346;2022-10-31T06:01:30;8.30;99.90
9699;DHT22;10089;47.876;8.346;2022-10-31T06:03:56;8.40;99.90
9699;DHT22;10089;47.876;8.346;2022-10-31T06:06:22;8.40;99.90
9699;DHT22;10089;47.876;8.346;2022-10-31T06:08:47;9.40;99.90
9699;DHT22;10089;47.876;8.346;2022-10-31T06:11:13;8.30;99.90
9699;DHT22;10089;47.876;8.346;2022-10-31T06:13:38;8.40;99.90
9699;DHT22;10089;47.876;8.346;2022-10-31T06:16:04;8.20;99.90
9699;DHT22;10089;47.876;8.346;2022-10-31T06:18:30;8.20;99.90
9699;DHT22;10089;47.876;8.346;2022-10-31T06:20:55;8.20;99.90
9699;DHT22;10089;47.876;8.346;2022-10-31T06:23:21;8.20;99.90
9699;DHT22;10089;47.876;8.346;2022-10-31T06:25:49;8.10;99.90
9699;DHT22;10089;47.876;8.346;2022-10-31T06:28:15;8.10;99.90
9699;DHT22;10089;47.876;8.346;2022-10-31T06:30:41;8.20;99.90
9699;DHT22;10089;47.876;8.346;2022-10-31T06:33:06;8.20;99.90
9699;DHT22;10089;47.876;8.346;2022-10-31T06:35:32;8.30;99.90
9699;DHT22;10089;47.876;8.346;2022-10-31T06:37:58;8.40;99.90
9699;DHT22;10089;47.876;8.346;2022-10-31T06:40:23;8.40;99.90
9699;DHT22;10089;47.876;8.346;2022-10-31T06:42:56;8.50;99.90
9699;DHT22;10089;47.876;8.346;2022-10-31T06:45:22;8.50;99.90
9699;DHT22;10089;47.876;8.346;2022-10-31T06:47:54;8.60;99.90
9699;DHT22;10089;47.876;8.346;2022-10-31T06:50:21;8.70;99.90
9699;DHT22;10089;47.876;8.346;2022-10-31T06:52:53;8.80;99.90
9699;DHT22;10089;47.876;8.346;2022-10-31T06:55:18;8.90;99.90
9699;DHT22;10089;47.876;8.346;2022-10-31T06:57:49;8.90;99.90
9699;DHT22;10089;47.876;8.346;2022-10-31T07:00:15;9.00;99.90
9699;DHT22;10089;47.876;8.346;2022-10-31T07:02:40;9.10;99.90
9699;DHT22;10089;47.876;8.346;2022-10-31T07:05:06;9.20;99.90
9699;DHT22;10089;47.876;8.346;2022-10-31T07:07:32;9.30;99.90
9699;DHT22;10089;47.876;8.346;2022-10-31T07:09:57;9.40;99.90
9699;DHT22;10089;47.876;8.346;2022-10-31T07:12:25;9.80;99.90
9699;DHT22;10089;47.876;8.346;2022-10-31T07:14:51;9.60;95.30
9699;DHT22;10089;47.876;8.346;2022-10-31T07:17:16;8.10;75.10
9699;DHT22;10089;47.876;8.346;2022-10-31T07:19:42;9.80;52.10
9699;DHT22;10089;47.876;8.346;2022-10-31T07:22:08;10.00;1.00
9699;DHT22;10089;47.876;8.346;2022-10-31T07:24:33;10.10;1.00
9699;DHT22;10089;47.876;8.346;2022-10-31T07:26:59;10.10;1.00
9699;DHT22;10089;47.876;8.346;2022-10-31T07:29:27;11.10;1.00
9699;DHT22;10089;47.876;8.346;2022-10-31T07:31:55;10.60;1.00
9699;DHT22;10089;47.876;8.346;2022-10-31T07:34:21;10.60;1.00
9699;DHT22;10089;47.876;8.346;2022-10-31T07:36:47;10.90;1.00
9699;DHT22;10089;47.876;8.346;2022-10-31T07:39:12;10.90;1.00
9699;DHT22;10089;47.876;8.346;2022-10-31T07:41:38;11.10;1.00
9699;DHT22;10089;47.876;8.346;2022-10-31T07:44:03;11.50;99.90
9699;DHT22;10089;47.876;8.346;2022-10-31T07:46:29;11.40;99.90
9699;DHT22;10089;47.876;8.346;2022-10-31T07:48:54;11.50;99.90
9699;DHT22;10089;47.876;8.346;2022-10-31T07:51:20;11.60;99.90
9699;DHT22;10089;47.876;8.346;2022-10-31T07:53:46;11.80;99.90
9699;DHT22;10089;47.876;8.346;2022-10-31T07:56:11;11.90;1.00
9699;DHT22;10089;47.876;8.346;2022-10-31T07:58:37;12.10;99.90
9699;DHT22;10089;47.876;8.346;2022-10-31T08:01:02;12.10;1.00
9699;DHT22;10089;47.876;8.346;2022-10-31T08:03:29;12.30;1.00
9699;DHT22;10089;47.876;8.346;2022-10-31T08:05:56;12.40;99.90
9699;DHT22;10089;47.876;8.346;2022-10-31T08:08:21;12.50;99.90
9699;DHT22;10089;47.876;8.346;2022-10-31T08:10:47;12.90;99.90
9699;DHT22;10089;47.876;8.346;2022-10-31T08:13:13;12.80;99.90
9699;DHT22;10089;47.876;8.346;2022-10-31T08:15:39;13.00;99.90
9699;DHT22;10089;47.876;8.346;2022-10-31T08:18:07;13.40;1.00
9699;DHT22;10089;47.876;8.346;2022-10-31T08:20:35;13.70;1.00
9699;DHT22;10089;47.876;8.346;2022-10-31T08:23:02;14.10;99.90
9699;DHT22;10089;47.876;8.346;2022-10-31T08:25:28;14.30;99.90
9699;DHT22;10089;47.876;8.346;2022-10-31T08:27:54;14.60;1.00
9699;DHT22;10089;47.876;8.346;2022-10-31T08:30:22;14.50;99.90
9699;DHT22;10089;47.876;8.346;2022-10-31T08:32:56;14.70;24.40
9699;DHT22;10089;47.876;8.346;2022-10-31T08:35:21;14.80;99.90
9699;DHT22;10089;47.876;8.346;2022-10-31T08:37:51;14.90;99.90
9699;DHT22;10089;47.876;8.346;2022-10-31T08:40:17;14.90;1.00
9699;DHT22;10089;47.876;8.346;2022-10-31T08:42:42;15.20;1.00
9699;DHT22;10089;47.876;8.346;2022-10-31T08:45:08;15.50;1.00
9699;DHT22;10089;47.876;8.346;2022-10-31T08:47:34;15.70;1.00
9699;DHT22;10089;47.876;8.346;2022-10-31T08:49:59;16.00;99.90
9699;DHT22;10089;47.876;8.346;2022-10-31T08:52:25;16.30;29.40
9699;DHT22;10089;47.876;8.346;2022-10-31T08:54:51;16.20;1.00
9699;DHT22;10089;47.876;8.346;2022-10-31T08:57:17;16.20;1.00
9699;DHT22;10089;47.876;8.346;2022-10-31T08:59:42;16.50;1.00
9699;DHT22;10089;47.876;8.346;2022-10-31T09:02:08;16.60;1.00
9699;DHT22;10089;47.876;8.346;2022-10-31T09:04:33;16.70;99.90
9699;DHT22;10089;47.876;8.346;2022-10-31T09:06:59;16.60;99.90
9699;DHT22;10089;47.876;8.346;2022-10-31T09:09:24;16.90;1.00
9699;DHT22;10089;47.876;8.346;2022-10-31T09:11:50;16.90;1.00
9699;DHT22;10089;47.876;8.346;2022-10-31T09:14:15;17.20;99.90
9699;DHT22;10089;47.876;8.346;2022-10-31T09:16:41;17.40;1.00
9699;DHT22;10089;47.876;8.346;2022-10-31T09:19:06;17.50;1.00
9699;DHT22;10089;47.876;8.346;2022-10-31T09:21:32;17.40;1.00
9699;DHT22;10089;47.876;8.346;2022-10-31T09:23:57;17.50;99.90
9699;DHT22;10089;47.876;8.346;2022-10-31T09:26:23;17.50;1.00
9699;DHT22;10089;47.876;8.346;2022-10-31T09:28:48;17.60;99.90
9699;DHT22;10089;47.876;8.346;2022-10-31T09:31:14;17.70;99.90
9699;DHT22;10089;47.876;8.346;2022-10-31T09:33:39;18.00;1.00
9699;DHT22;10089;47.876;8.346;2022-10-31T09:36:05;18.30;1.00
9699;DHT22;10089;47.876;8.346;2022-10-31T09:38:31;18.40;1.00
9699;DHT22;10089;47.876;8.346;2022-10-31T09:41:18;18.40;1.00
9699;DHT22;10089;47.876;8.346;2022-10-31T09:46:21;18.40;99.90
9699;DHT22;10089;47.876;8.346;2022-10-31T09:51:23;18.20;99.90
9699;DHT22;10089;47.876;8.346;2022-10-31T09:54:03;17.80;1.00
9699;DHT22;10089;47.876;8.346;2022-10-31T09:56:30;17.70;1.00
9699;DHT22;10089;47.876;8.346;2022-10-31T09:58:57;17.60;1.00
9699;DHT22;10089;47.876;8.346;2022-10-31T10:06:36;17.50;84.40
9699;DHT22;10089;47.876;8.346;2022-10-31T10:09:06;17.50;99.90
9699;DHT22;10089;47.876;8.346;2022-10-31T10:11:36;17.30;99.90
9699;DHT22;10089;47.876;8.346;2022-10-31T10:16:32;17.10;1.00
9699;DHT22;10089;47.876;8.346;2022-10-31T10:21:42;16.90;99.90
9699;DHT22;10089;47.876;8.346;2022-10-31T10:29:37;17.10;1.00
9699;DHT22;10089;47.876;8.346;2022-10-31T10:32:13;17.00;1.00
9699;DHT22;10089;47.876;8.346;2022-10-31T10:34:44;17.10;99.90
9699;DHT22;10089;47.876;8.346;2022-10-31T10:39:50;17.20;99.90
9699;DHT22;10089;47.876;8.346;2022-10-31T10:42:17;17.30;99.90
9699;DHT22;10089;47.876;8.346;2022-10-31T10:45:16;17.20;9.50
9699;DHT22;10089;47.876;8.346;2022-10-31T10:50:49;16.70;1.00
9699;DHT22;10089;47.876;8.346;2022-10-31T10:53:24;16.60;1.00
9699;DHT22;10089;47.876;8.346;2022-10-31T10:58:22;16.70;1.00
9699;DHT22;10089;47.876;8.346;2022-10-31T11:00:48;16.80;1.00
9699;DHT22;10089;47.876;8.346;2022-10-31T11:03:15;16.80;99.90
9699;DHT22;10089;47.876;8.346;2022-10-31T11:05:46;16.80;99.90
9699;DHT22;10089;47.876;8.346;2022-10-31T11:08:26;16.80;99.90
9699;DHT22;10089;47.876;8.346;2022-10-31T11:11:05;16.50;1.00
9699;DHT22;10089;47.876;8.346;2022-10-31T11:13:33;16.40;1.00
9699;DHT22;10089;47.876;8.346;2022-10-31T11:16:01;16.30;1.00
9699;DHT22;10089;47.876;8.346;2022-10-31T11:18:31;16.20;99.90
9699;DHT22;10089;47.876;8.346;2022-10-31T11:20:58;16.20;1.00
9699;DHT22;10089;47.876;8.346;2022-10-31T11:23:24;16.40;99.90
9699;DHT22;10089;47.876;8.346;2022-10-31T11:28:16;16.20;1.00
9699;DHT22;10089;47.876;8.346;2022-10-31T11:30:43;16.10;99.90
9699;DHT22;10089;47.876;8.346;2022-10-31T11:33:21;16.00;34.70
9699;DHT22;10089;47.876;8.346;2022-10-31T11:35:47;16.10;1.00
9699;DHT22;10089;47.876;8.346;2022-10-31T11:38:17;16.50;1.00
9699;DHT22;10089;47.876;8.346;2022-10-31T11:41:05;16.90;99.90
9699;DHT22;10089;47.876;8.346;2022-10-31T11:43:33;17.10;99.90
9699;DHT22;10089;47.876;8.346;2022-10-31T11:45:59;17.10;1.00
9699;DHT22;10089;47.876;8.346;2022-10-31T11:48:25;17.40;1.00
9699;DHT22;10089;47.876;8.346;2022-10-31T11:50:54;17.60;1.00
9699;DHT22;10089;47.876;8.346;2022-10-31T11:53:30;17.80;1.00
9699;DHT22;10089;47.876;8.346;2022-10-31T11:56:13;17.40;1.00
9699;DHT22;10089;47.876;8.346;2022-10-31T11:58:39;17.40;1.00
9699;DHT22;10089;47.876;8.346;2022-10-31T12:01:05;17.60;1.00
9699;DHT22;10089;47.876;8.346;2022-10-31T12:06:03;17.70;1.00
9699;DHT22;10089;47.876;8.346;2022-10-31T12:08:31;17.80;99.90
9699;DHT22;10089;47.876;8.346;2022-10-31T12:11:22;18.00;18.20
9699;DHT22;10089;47.876;8.346;2022-10-31T12:16:28;18.50;1.00
9699;DHT22;10089;47.876;8.346;2022-10-31T12:18:59;18.30;99.90
9699;DHT22;10089;47.876;8.346;2022-10-31T12:26:54;19.10;99.90
9699;DHT22;10089;47.876;8.346;2022-10-31T12:32:03;19.70;1.00
9699;DHT22;10089;47.876;8.346;2022-10-31T12:37:31;19.00;7.40
9699;DHT22;10089;47.876;8.346;2022-10-31T12:45:18;19.30;26.10
9699;DHT22;10089;47.876;8.346;2022-10-31T12:48:10;19.10;56.30
9699;DHT22;10089;47.876;8.346;2022-10-31T12:50:47;19.10;1.00
9699;DHT22;10089;47.876;8.346;2022-10-31T12:58:29;19.30;62.60
9699;DHT22;10089;47.876;8.346;2022-10-31T13:01:06;19.60;18.30
9699;DHT22;10089;47.876;8.346;2022-10-31T13:06:07;19.50;16.60
9699;DHT22;10089;47.876;8.346;2022-10-31T13:08:39;19.30;54.40
9699;DHT22;10089;47.876;8.346;2022-10-31T13:11:08;19.20;35.50
9699;DHT22;10089;47.876;8.346;2022-10-31T13:13:40;19.20;83.60
9699;DHT22;10089;47.876;8.346;2022-10-31T13:16:19;19.10;55.10
9699;DHT22;10089;47.876;8.346;2022-10-31T13:21:22;19.00;22.80
9699;DHT22;10089;47.876;8.346;2022-10-31T13:23:49;18.90;17.30
9699;DHT22;10089;47.876;8.346;2022-10-31T13:28:57;18.50;64.90
9699;DHT22;10089;47.876;8.346;2022-10-31T13:31:25;18.30;43.10
9699;DHT22;10089;47.876;8.346;2022-10-31T13:36:48;18.10;99.90
9699;DHT22;10089;47.876;8.346;2022-10-31T13:42:08;18.00;99.90
9699;DHT22;10089;47.876;8.346;2022-10-31T13:44:36;18.00;99.90
9699;DHT22;10089;47.876;8.346;2022-10-31T13:47:20;17.90;99.90
9699;DHT22;10089;47.876;8.346;2022-10-31T13:49:46;18.00;99.90
9699;DHT22;10089;47.876;8.346;2022-10-31T13:52:13;17.90;99.90
9699;DHT22;10089;47.876;8.346;2022-10-31T13:54:41;18.00;99.90
9699;DHT22;10089;47.876;8.346;2022-10-31T13:57:49;17.90;99.90
9699;DHT22;10089;47.876;8.346;2022-10-31T13:59:56;17.70;99.90
9699;DHT22;10089;47.876;8.346;2022-10-31T14:02:27;17.60;99.90
9699;DHT22;10089;47.876;8.346;2022-10-31T14:05:04;17.60;99.90
9699;DHT22;10089;47.876;8.346;2022-10-31T14:07:30;17.50;99.90
9699;DHT22;10089;47.876;8.346;2022-10-31T14:14:48;17.60;99.90
9699;DHT22;10089;47.876;8.346;2022-10-31T14:17:17;17.60;99.90
9699;DHT22;10089;47.876;8.346;2022-10-31T14:24:47;17.40;99.90
9699;DHT22;10089;47.876;8.346;2022-10-31T14:27:32;17.40;99.90
9699;DHT22;10089;47.876;8.346;2022-10-31T14:30:07;17.30;99.90
9699;DHT22;10089;47.876;8.346;2022-10-31T14:32:32;17.30;99.90
9699;DHT22;10089;47.876;8.346;2022-10-31T14:34:58;17.30;1.00
9699;DHT22;10089;47.876;8.346;2022-10-31T14:47:58;16.90;1.00
9699;DHT22;10089;47.876;8.346;2022-10-31T14:52:56;16.80;1.00
9699;DHT22;10089;47.876;8.346;2022-10-31T14:55:21;16.70;1.00
9699;DHT22;10089;47.876;8.346;2022-10-31T14:57:58;16.60;99.90
9699;DHT22;10089;47.876;8.346;2022-10-31T15:00:25;16.60;1.00
9699;DHT22;10089;47.876;8.346;2022-10-31T15:05:29;16.40;99.90
9699;DHT22;10089;47.876;8.346;2022-10-31T15:07:55;16.40;1.00
9699;DHT22;10089;47.876;8.346;2022-10-31T15:10:22;16.30;99.90
9699;DHT22;10089;47.876;8.346;2022-10-31T15:12:48;16.30;1.00
9699;DHT22;10089;47.876;8.346;2022-10-31T15:15:17;16.10;99.90
9699;DHT22;10089;47.876;8.346;2022-10-31T15:17:57;16.00;1.00
9699;DHT22;10089;47.876;8.346;2022-10-31T15:20:25;16.00;99.90
9699;DHT22;10089;47.876;8.346;2022-10-31T15:22:51;15.90;99.90
9699;DHT22;10089;47.876;8.346;2022-10-31T15:25:19;15.80;99.90
9699;DHT22;10089;47.876;8.346;2022-10-31T15:27:45;15.80;99.90
9699;DHT22;10089;47.876;8.346;2022-10-31T15:30:21;15.80;1.00
9699;DHT22;10089;47.876;8.346;2022-10-31T15:32:47;15.80;99.90
9699;DHT22;10089;47.876;8.346;2022-10-31T15:35:23;15.80;1.00
9699;DHT22;10089;47.876;8.346;2022-10-31T15:37:54;15.60;1.00
9699;DHT22;10089;47.876;8.346;2022-10-31T15:40:22;15.60;99.90
9699;DHT22;10089;47.876;8.346;2022-10-31T15:42:51;15.50;99.90
9699;DHT22;10089;47.876;8.346;2022-10-31T15:45:22;15.40;99.90
9699;DHT22;10089;47.876;8.346;2022-10-31T15:50:51;15.30;1.00
9699;DHT22;10089;47.876;8.346;2022-10-31T15:53:41;15.30;99.90
9699;DHT22;10089;47.876;8.346;2022-10-31T15:56:06;15.20;99.90
9699;DHT22;10089;47.876;8.346;2022-10-31T15:58:33;15.10;1.00
9699;DHT22;10089;47.876;8.346;2022-10-31T16:01:18;14.90;99.90
9699;DHT22;10089;47.876;8.346;2022-10-31T16:03:54;14.70;1.00
9699;DHT22;10089;47.876;8.346;2022-10-31T16:06:21;14.70;99.90
9699;DHT22;10089;47.876;8.346;2022-10-31T16:08:48;14.60;1.00
9699;DHT22;10089;47.876;8.346;2022-10-31T16:11:15;14.60;1.00
9699;DHT22;10089;47.876;8.346;2022-10-31T16:13:51;14.50;1.00
9699;DHT22;10089;47.876;8.346;2022-10-31T16:16:17;14.40;1.00
9699;DHT22;10089;47.876;8.346;2022-10-31T16:18:45;14.30;1.00
9699;DHT22;10089;47.876;8.346;2022-10-31T16:21:11;14.20;1.00
9699;DHT22;10089;47.876;8.346;2022-10-31T16:23:37;14.10;1.00
9699;DHT22;10089;47.876;8.346;2022-10-31T16:26:06;14.10;1.00
9699;DHT22;10089;47.876;8.346;2022-10-31T16:28:32;14.00;1.00
9699;DHT22;10089;47.876;8.346;2022-10-31T16:30:58;13.90;1.00
9699;DHT22;10089;47.876;8.346;2022-10-31T16:33:28;13.90;1.00
9699;DHT22;10089;47.876;8.346;2022-10-31T16:35:57;13.70;23.40
9699;DHT22;10089;47.876;8.346;2022-10-31T16:38:26;13.50;92.00
9699;DHT22;10089;47.876;8.346;2022-10-31T16:40:54;13.50;88.50
9699;DHT22;10089;47.876;8.346;2022-10-31T16:43:20;13.50;99.90
9699;DHT22;10089;47.876;8.346;2022-10-31T16:45:48;13.30;99.90
9699;DHT22;10089;47.876;8.346;2022-10-31T16:48:14;13.20;99.90
9699;DHT22;10089;47.876;8.346;2022-10-31T16:50:41;13.20;99.90
9699;DHT22;10089;47.876;8.346;2022-10-31T16:53:09;13.20;99.90
9699;DHT22;10089;47.876;8.346;2022-10-31T16:55:40;13.00;99.90
9699;DHT22;10089;47.876;8.346;2022-10-31T16:58:09;12.90;99.90
9699;DHT22;10089;47.876;8.346;2022-10-31T17:00:37;13.00;99.90
9699;DHT22;10089;47.876;8.346;2022-10-31T17:03:03;13.00;99.90
9699;DHT22;10089;47.876;8.346;2022-10-31T17:05:36;13.00;99.90
9699;DHT22;10089;47.876;8.346;2022-10-31T17:08:22;12.90;99.90
9699;DHT22;10089;47.876;8.346;2022-10-31T17:10:52;12.90;99.90
9699;DHT22;10089;47.876;8.346;2022-10-31T17:13:20;12.80;99.90
9699;DHT22;10089;47.876;8.346;2022-10-31T17:15:50;12.70;99.90
9699;DHT22;10089;47.876;8.346;2022-10-31T17:21:21;12.40;99.90
9699;DHT22;10089;47.876;8.346;2022-10-31T17:51:48;12.50;99.90
9699;DHT22;10089;47.876;8.346;2022-10-31T17:54:14;12.10;99.90
9699;DHT22;10089;47.876;8.346;2022-10-31T17:56:42;12.10;99.90
9699;DHT22;10089;47.876;8.346;2022-10-31T17:59:08;12.10;99.90
9699;DHT22;10089;47.876;8.346;2022-10-31T18:01:33;11.90;99.90
9699;DHT22;10089;47.876;8.346;2022-10-31T18:03:59;11.90;99.90
9699;DHT22;10089;47.876;8.346;2022-10-31T18:06:25;12.00;99.90
9699;DHT22;10089;47.876;8.346;2022-10-31T18:08:50;12.00;99.90
9699;DHT22;10089;47.876;8.346;2022-10-31T18:11:16;11.90;99.90
9699;DHT22;10089;47.876;8.346;2022-10-31T18:13:43;11.80;99.90
9699;DHT22;10089;47.876;8.346;2022-10-31T18:16:09;11.70;99.90
9699;DHT22;10089;47.876;8.346;2022-10-31T18:18:35;11.70;99.90
9699;DHT22;10089;47.876;8.346;2022-10-31T18:21:00;11.70;99.90
9699;DHT22;10089;47.876;8.346;2022-10-31T18:23:26;11.60;99.90
9699;DHT22;10089;47.876;8.346;2022-10-31T18:25:52;11.60;99.90
9699;DHT22;10089;47.876;8.346;2022-10-31T18:28:18;11.50;99.90
9699;DHT22;10089;47.876;8.346;2022-10-31T18:30:43;11.50;99.90
9699;DHT22;10089;47.876;8.346;2022-10-31T18:33:09;11.50;99.90
9699;DHT22;10089;47.876;8.346;2022-10-31T18:35:37;11.50;99.90
9699;DHT22;10089;47.876;8.346;2022-10-31T18:38:03;11.40;99.90
9699;DHT22;10089;47.876;8.346;2022-10-31T18:40:30;11.50;99.90
9699;DHT22;10089;47.876;8.346;2022-10-31T18:42:56;11.50;99.90